createdAt,value
2022-12-18T00:04:59.754Z,22.42
2022-12-18T00:10:01.145Z,19.80
2022-12-18T00:15:02.660Z,20.98
2022-12-18T00:20:04.588Z,18.48
2022-12-18T00:25:06.262Z,20.08
2022-12-18T00:30:08.229Z,16.80
2022-12-18T00:35:12.252Z,16.60
2022-12-18T00:40:14.067Z,20.20
2022-12-18T00:45:15.681Z,23.95
2022-12-18T00:50:17.834Z,22.63
2022-12-18T00:55:19.550Z,22.55
2022-12-18T01:00:21.562Z,30.05
2022-12-18T01:05:22.981Z,19.77
2022-12-18T01:10:25.379Z,19.75
2022-12-18T01:15:27.044Z,24.52
2022-12-18T01:20:28.404Z,20.80
2022-12-18T01:25:29.975Z,25.10
2022-12-18T01:30:31.386Z,18.25
2022-12-18T01:35:32.912Z,17.52
2022-12-18T01:40:34.363Z,17.38
2022-12-18T01:45:35.847Z,21.45
2022-12-18T01:50:41.528Z,21.08
2022-12-18T01:55:51.280Z,20.05
2022-12-18T02:00:52.755Z,19.42
2022-12-18T02:06:02.167Z,17.85
2022-12-18T02:11:22.084Z,18.70
2022-12-18T02:16:29.429Z,21.92
2022-12-18T02:21:56.854Z,18.35
2022-12-18T02:27:03.958Z,23.10
2022-12-18T02:32:13.833Z,19.02
2022-12-18T02:37:19.433Z,17.65
2022-12-18T02:42:20.999Z,19.95
2022-12-18T02:47:24.861Z,18.48
2022-12-18T02:52:51.178Z,17.20
2022-12-18T02:57:57.525Z,20.83
2022-12-18T03:03:02.628Z,18.83
2022-12-18T03:08:30.316Z,17.80
2022-12-18T03:13:56.183Z,16.75
2022-12-18T03:19:01.773Z,17.65
2022-12-18T03:24:07.767Z,19.40
2022-12-18T03:29:15.800Z,21.42
2022-12-18T03:34:23.840Z,17.00
2022-12-18T03:39:25.846Z,18.92
2022-12-18T03:44:59.417Z,15.80
2022-12-18T03:50:13.865Z,17.58
2022-12-18T03:55:16.169Z,18.63
2022-12-18T04:00:19.987Z,16.27
2022-12-18T04:05:23.552Z,15.68
2022-12-18T04:10:25.244Z,18.45
2022-12-18T04:15:26.782Z,17.92
2022-12-18T04:20:28.568Z,12.15
2022-12-18T04:25:30.011Z,16.45
2022-12-18T04:30:31.523Z,19.80
2022-12-18T04:35:33.023Z,20.67
2022-12-18T04:40:34.821Z,17.77
2022-12-18T04:45:36.336Z,24.20
2022-12-18T04:50:37.763Z,18.23
2022-12-18T04:55:39.290Z,20.85
2022-12-18T05:00:40.978Z,21.23
2022-12-18T05:05:42.432Z,20.25
2022-12-18T05:10:43.820Z,15.00
2022-12-18T05:15:53.344Z,18.23
2022-12-18T05:20:55.505Z,19.48
2022-12-18T05:25:59.893Z,16.15
2022-12-18T05:31:04.858Z,17.52
2022-12-18T05:36:08.808Z,19.20
2022-12-18T05:41:10.702Z,20.38
2022-12-18T05:46:17.569Z,20.92
2022-12-18T05:51:21.773Z,18.95
2022-12-18T05:56:24.028Z,18.35
2022-12-18T06:01:27.552Z,18.38
2022-12-18T06:06:29.705Z,19.73
2022-12-18T06:11:31.068Z,18.90
2022-12-18T06:16:33.102Z,20.13
2022-12-18T06:21:34.750Z,20.27
2022-12-18T06:26:39.360Z,15.23
2022-12-18T06:31:40.776Z,21.52
2022-12-18T06:36:42.232Z,20.13
2022-12-18T06:41:43.740Z,23.42
2022-12-18T06:46:45.284Z,17.92
2022-12-18T06:51:46.807Z,18.95
2022-12-18T06:56:48.932Z,18.42
2022-12-18T07:01:50.617Z,21.90
2022-12-18T07:06:52.125Z,19.05
2022-12-18T07:11:53.546Z,20.77
2022-12-18T07:16:54.950Z,24.20
2022-12-18T07:21:56.363Z,21.67
2022-12-18T07:26:57.969Z,19.90
2022-12-18T07:31:59.399Z,18.90
2022-12-18T07:37:00.865Z,19.48
2022-12-18T07:42:02.409Z,21.48
2022-12-18T07:47:07.824Z,17.98
2022-12-18T07:52:13.091Z,19.07
2022-12-18T07:57:41.391Z,22.60
2022-12-18T08:02:36.046Z,21.73
2022-12-18T08:07:37.591Z,21.42
2022-12-18T08:12:39.428Z,22.02
2022-12-18T08:17:40.874Z,24.77
2022-12-18T08:22:43.011Z,20.85
2022-12-18T08:27:44.405Z,18.35
2022-12-18T08:32:45.919Z,17.30
2022-12-18T08:37:47.271Z,21.88
2022-12-18T08:42:48.716Z,18.05
2022-12-18T08:47:50.055Z,24.02
2022-12-18T08:52:51.443Z,24.30
2022-12-18T08:57:52.874Z,18.67
2022-12-18T09:02:54.419Z,20.08
2022-12-18T09:07:55.846Z,18.60
2022-12-18T09:12:57.324Z,19.48
2022-12-18T09:17:58.653Z,20.65
2022-12-18T09:22:59.998Z,19.52
2022-12-18T09:28:01.840Z,20.55
2022-12-18T09:33:03.271Z,24.05
2022-12-18T09:38:10.866Z,21.70
2022-12-18T09:43:29.432Z,18.45
2022-12-18T09:48:41.782Z,22.63
2022-12-18T09:53:52.691Z,18.55
2022-12-18T09:59:00.062Z,21.02
2022-12-18T10:04:01.658Z,22.40
2022-12-18T10:09:42.278Z,19.48
2022-12-18T10:14:54.801Z,21.00
2022-12-18T10:20:14.511Z,18.80
2022-12-18T10:25:25.497Z,22.20
2022-12-18T10:30:28.193Z,19.58
2022-12-18T10:35:29.792Z,22.80
2022-12-18T10:40:31.581Z,26.00
2022-12-18T10:45:32.945Z,22.55
2022-12-18T10:51:09.809Z,18.85
2022-12-18T10:56:00.392Z,20.23
2022-12-18T11:01:07.546Z,23.25
2022-12-18T11:06:18.053Z,23.70
2022-12-18T11:11:22.464Z,16.80
2022-12-18T11:16:23.975Z,18.73
2022-12-18T11:21:26.272Z,23.60
2022-12-18T11:26:35.898Z,23.67
2022-12-18T11:31:37.433Z,23.13
2022-12-18T11:36:44.086Z,33.35
2022-12-18T11:42:08.821Z,21.10
2022-12-18T11:47:44.308Z,25.35
2022-12-18T11:52:45.837Z,23.13
2022-12-18T11:58:17.917Z,30.02
2022-12-18T12:03:36.377Z,20.35
2022-12-18T12:09:04.622Z,22.23
2022-12-18T12:14:49.693Z,23.50
2022-12-18T12:19:53.873Z,21.67
2022-12-18T12:25:28.019Z,22.67
2022-12-18T12:30:51.531Z,23.48
2022-12-18T12:36:08.230Z,24.67
2022-12-18T12:41:15.684Z,24.27
2022-12-18T12:46:19.956Z,26.25
2022-12-18T12:51:27.163Z,20.60
2022-12-18T12:56:42.013Z,27.00
2022-12-18T13:02:08.471Z,26.00
2022-12-18T13:07:19.340Z,22.77
2022-12-18T13:12:21.322Z,28.50
2022-12-18T13:17:23.106Z,24.55
2022-12-18T13:22:38.195Z,27.73
2022-12-18T13:27:45.650Z,28.30
2022-12-18T13:32:46.994Z,27.48
2022-12-18T13:37:55.846Z,29.55
2022-12-18T13:42:59.258Z,27.60
2022-12-18T13:48:00.740Z,29.00
2022-12-18T13:53:03.971Z,29.52
2022-12-18T13:58:07.510Z,28.60
2022-12-18T14:03:29.147Z,25.23
2022-12-18T14:08:36.626Z,28.73
2022-12-18T14:13:42.994Z,29.48
2022-12-18T14:18:59.099Z,27.35
2022-12-18T14:24:14.618Z,28.13
2022-12-18T14:29:18.956Z,33.03
2022-12-18T14:34:27.295Z,30.98
2022-12-18T14:39:28.691Z,30.33
2022-12-18T14:44:39.105Z,28.08
2022-12-18T14:49:51.458Z,30.23
2022-12-18T14:54:53.149Z,31.10
2022-12-18T15:00:04.239Z,31.40
2022-12-18T15:05:28.126Z,26.55
2022-12-18T15:10:31.690Z,29.92
2022-12-18T15:15:36.111Z,34.25
2022-12-18T15:20:43.501Z,34.63
2022-12-18T15:25:46.495Z,37.90
2022-12-18T15:31:00.978Z,33.05
2022-12-18T15:36:05.964Z,32.97
2022-12-18T15:41:14.609Z,32.33
2022-12-18T15:46:17.948Z,32.55
2022-12-18T15:51:29.251Z,32.92
2022-12-18T15:56:30.686Z,36.25
2022-12-18T16:01:32.550Z,43.25
2022-12-18T16:06:45.197Z,41.47
2022-12-18T16:11:55.565Z,32.40
2022-12-18T16:17:02.888Z,29.73
2022-12-18T16:22:04.793Z,37.25
2022-12-18T16:27:06.183Z,36.35
2022-12-18T16:32:07.695Z,40.70
2022-12-18T16:37:10.757Z,33.58
2022-12-18T16:42:16.343Z,34.67
2022-12-18T16:47:18.275Z,36.85
2022-12-18T16:52:20.592Z,40.22
2022-12-18T16:57:23.266Z,38.83
2022-12-18T17:02:28.235Z,38.63
2022-12-18T17:07:29.829Z,36.53
2022-12-18T17:12:31.314Z,36.85
2022-12-18T17:17:32.715Z,42.30
2022-12-18T17:22:34.224Z,38.35
2022-12-18T17:27:35.629Z,38.38
2022-12-18T17:32:36.982Z,41.40
2022-12-18T17:37:38.422Z,36.03
2022-12-18T17:42:39.790Z,38.97
2022-12-18T17:47:41.136Z,40.85
2022-12-18T17:52:42.509Z,37.83
2022-12-18T17:57:43.817Z,44.53
2022-12-18T18:02:45.806Z,40.75
2022-12-18T18:07:47.427Z,39.95
2022-12-18T18:12:48.795Z,37.20
2022-12-18T18:17:50.130Z,41.38
2022-12-18T18:22:51.494Z,37.28
2022-12-18T18:27:52.911Z,49.15
2022-12-18T18:32:54.325Z,37.53
2022-12-18T18:37:55.746Z,37.40
2022-12-18T18:42:57.150Z,45.95
2022-12-18T18:47:58.595Z,37.88
2022-12-18T18:53:00.125Z,39.97
2022-12-18T18:58:01.554Z,40.83
2022-12-18T19:03:05.078Z,41.67
2022-12-18T19:08:06.510Z,42.83
2022-12-18T19:13:13.725Z,38.53
2022-12-18T19:18:15.982Z,43.38
2022-12-18T19:23:17.591Z,46.40
2022-12-18T19:28:22.132Z,36.55
2022-12-18T19:33:42.345Z,43.65
2022-12-18T19:38:46.719Z,46.60
2022-12-18T19:43:48.681Z,42.88
2022-12-18T19:48:50.852Z,40.63
2022-12-18T19:53:58.067Z,43.45
2022-12-18T19:59:02.637Z,42.58
2022-12-18T20:04:04.276Z,42.22
2022-12-18T20:09:09.677Z,42.22
2022-12-18T20:14:12.647Z,41.28
2022-12-18T20:19:14.472Z,36.17
2022-12-18T20:24:17.324Z,45.30
2022-12-18T20:29:18.729Z,45.30
2022-12-18T20:34:20.121Z,37.03
2022-12-18T20:39:21.897Z,46.88
2022-12-18T20:44:24.264Z,42.50
2022-12-18T20:49:26.741Z,42.00
2022-12-18T20:54:28.142Z,40.60
2022-12-18T20:59:29.776Z,42.95
2022-12-18T21:04:31.405Z,43.13
2022-12-18T21:09:37.299Z,40.20
2022-12-18T21:14:39.920Z,39.97
2022-12-18T21:19:41.400Z,38.28
2022-12-18T21:24:43.097Z,37.10
2022-12-18T21:29:45.066Z,36.40
2022-12-18T21:34:48.348Z,43.45
2022-12-18T21:39:50.022Z,45.83
2022-12-18T21:44:51.616Z,35.88
2022-12-18T21:49:53.259Z,37.67
2022-12-18T21:54:54.688Z,41.17
2022-12-18T21:59:56.214Z,43.88
2022-12-18T22:04:57.631Z,41.05
2022-12-18T22:09:59.401Z,39.88
2022-12-18T22:15:07.521Z,39.97
2022-12-18T22:20:10.678Z,37.70
2022-12-18T22:25:12.338Z,41.55
2022-12-18T22:30:14.888Z,42.50
2022-12-18T22:59:51.530Z,49.15
2022-12-18T23:11:05.396Z,46.20
2022-12-18T23:16:35.428Z,41.50
2022-12-18T23:51:27.082Z,42.20
